Time;durP1;ratioP1;P1;durP2;ratioP2;P2;SDS_P1;SDS_P2;PMS_P1;PMS_P2;Temp;Humidity;BMP_temperature;BMP_pressure;BME280_temperature;BME280_humidity;BME280_pressure;Samples;Min_cycle;Max_cycle;Signal;HPM_P1;HPM_P2
2023/07/08 00:00:16;;;;;;;8.48;5.85;;;;;;;;;;5033544;28;20048;-77
2023/07/08 00:02:42;;;;;;;8.65;6.13;;;;;;;;;;5033341;28;20041;-77
2023/07/08 00:05:12;;;;;;;8.85;5.78;;;;;;;;;;5032876;28;20511;-77
2023/07/08 00:07:39;;;;;;;8.90;6.10;;;;;;;;;;5033631;28;20049;-77
2023/07/08 00:10:24;;;;;;;11.48;6.15;;;;;;;;;;5032889;28;20120;-77
2023/07/08 00:12:51;;;;;;;9.10;6.13;;;;;;;;;;5033757;28;20056;-77
2023/07/08 00:15:18;;;;;;;8.38;6.00;;;;;;;;;;5033283;28;20073;-77
2023/07/08 00:17:44;;;;;;;8.27;6.45;;;;;;;;;;5033502;28;20069;-77
2023/07/08 00:20:29;;;;;;;9.63;6.85;;;;;;;;;;5032061;28;20079;-77
2023/07/08 00:22:55;;;;;;;10.02;6.68;;;;;;;;;;5032617;28;20403;-77
2023/07/08 00:25:21;;;;;;;10.30;6.50;;;;;;;;;;5032947;28;20049;-77
2023/07/08 00:27:48;;;;;;;8.73;7.10;;;;;;;;;;5032787;28;20053;-77
2023/07/08 00:30:20;;;;;;;8.07;6.63;;;;;;;;;;5033037;28;20377;-77
2023/07/08 00:32:46;;;;;;;10.60;7.68;;;;;;;;;;5033081;28;20076;-77
2023/07/08 00:35:12;;;;;;;10.18;7.20;;;;;;;;;;5034544;28;20060;-77
2023/07/08 00:37:39;;;;;;;9.90;6.80;;;;;;;;;;5037843;28;20038;-77
2023/07/08 00:40:18;;;;;;;7.57;6.35;;;;;;;;;;5036769;28;20468;-77
2023/07/08 00:42:44;;;;;;;9.27;6.75;;;;;;;;;;5037288;28;20060;-77
2023/07/08 00:45:17;;;;;;;9.18;6.78;;;;;;;;;;5035847;28;20174;-77
2023/07/08 00:47:43;;;;;;;9.70;6.78;;;;;;;;;;5037088;28;20080;-77
2023/07/08 00:50:11;;;;;;;8.70;6.82;;;;;;;;;;5037410;28;20041;-77
2023/07/08 00:52:37;;;;;;;8.02;6.47;;;;;;;;;;5036806;28;20126;-77
2023/07/08 00:55:06;;;;;;;9.82;6.68;;;;;;;;;;5036394;28;20515;-77
2023/07/08 00:57:34;;;;;;;8.68;6.97;;;;;;;;;;5036686;28;20072;-77
2023/07/08 01:00:03;;;;;;;10.93;7.10;;;;;;;;;;5036744;28;20431;-77
2023/07/08 01:02:29;;;;;;;10.77;6.57;;;;;;;;;;5035887;28;20073;-77
2023/07/08 01:04:58;;;;;;;10.15;7.47;;;;;;;;;;5036635;28;20514;-77
2023/07/08 01:07:28;;;;;;;12.35;7.25;;;;;;;;;;5036688;28;20037;-77
2023/07/08 01:10:12;;;;;;;10.90;7.55;;;;;;;;;;5036816;28;20041;-77
2023/07/08 01:12:40;;;;;;;9.93;7.00;;;;;;;;;;5037015;28;20128;-77
2023/07/08 01:15:07;;;;;;;9.25;7.40;;;;;;;;;;5036598;28;20087;-77
2023/07/08 01:17:33;;;;;;;9.60;7.40;;;;;;;;;;5036607;28;20041;-77
2023/07/08 01:20:00;;;;;;;8.73;6.93;;;;;;;;;;5036048;28;20057;-77
2023/07/08 01:22:31;;;;;;;11.05;6.38;;;;;;;;;;5036265;28;20120;-77
2023/07/08 01:25:02;;;;;;;11.43;7.05;;;;;;;;;;5036542;28;20041;-77
2023/07/08 01:27:29;;;;;;;10.32;7.45;;;;;;;;;;5035915;28;20061;-77
2023/07/08 01:29:55;;;;;;;10.57;7.30;;;;;;;;;;5037874;28;20053;-77
2023/07/08 01:32:21;;;;;;;10.15;7.30;;;;;;;;;;5036333;28;20092;-77
2023/07/08 01:34:59;;;;;;;8.00;6.65;;;;;;;;;;5035728;28;20531;-77
2023/07/08 01:37:26;;;;;;;9.52;7.15;;;;;;;;;;5036203;28;20091;-77
2023/07/08 01:39:52;;;;;;;10.30;7.13;;;;;;;;;;5035537;28;20053;-77
2023/07/08 01:42:18;;;;;;;8.57;6.97;;;;;;;;;;5035819;28;20045;-77
2023/07/08 01:44:44;;;;;;;9.43;6.90;;;;;;;;;;5035759;28;20045;-77
2023/07/08 01:47:13;;;;;;;8.75;6.63;;;;;;;;;;5035129;28;20045;-77
2023/07/08 01:49:40;;;;;;;7.60;6.05;;;;;;;;;;5035983;28;20049;-78
2023/07/08 01:52:07;;;;;;;8.60;6.30;;;;;;;;;;5037421;28;20042;-78
2023/07/08 01:54:33;;;;;;;7.53;6.13;;;;;;;;;;5032551;28;20160;-76
2023/07/08 01:57:00;;;;;;;7.63;6.20;;;;;;;;;;5017717;28;20112;-76
2023/07/08 01:59:26;;;;;;;8.38;6.65;;;;;;;;;;5016666;28;20093;-77
2023/07/08 02:01:54;;;;;;;7.47;6.40;;;;;;;;;;5015682;28;20497;-76
2023/07/08 02:04:24;;;;;;;11.35;6.88;;;;;;;;;;5015436;28;20393;-77
2023/07/08 02:06:57;;;;;;;8.55;6.65;;;;;;;;;;5015432;28;20147;-76
2023/07/08 02:09:24;;;;;;;8.38;6.22;;;;;;;;;;5017798;28;20098;-76
2023/07/08 02:11:51;;;;;;;9.70;6.57;;;;;;;;;;5020247;28;20046;-76
2023/07/08 02:14:17;;;;;;;9.43;6.70;;;;;;;;;;5020972;28;20038;-76
2023/07/08 02:16:43;;;;;;;9.75;7.28;;;;;;;;;;5033145;28;20325;-76
2023/07/08 02:19:11;;;;;;;9.65;7.20;;;;;;;;;;5035310;28;20053;-76
2023/07/08 02:21:38;;;;;;;9.02;7.22;;;;;;;;;;5035445;28;20044;-76
2023/07/08 02:24:05;;;;;;;9.07;6.60;;;;;;;;;;5034911;28;20476;-76
2023/07/08 02:26:32;;;;;;;9.05;6.78;;;;;;;;;;5034746;28;20099;-76
2023/07/08 02:28:58;;;;;;;8.48;6.80;;;;;;;;;;5034601;28;20492;-76
2023/07/08 02:31:25;;;;;;;10.98;7.18;;;;;;;;;;5034615;28;20045;-76
2023/07/08 02:33:52;;;;;;;9.57;6.93;;;;;;;;;;5035292;28;20053;-76
2023/07/08 02:36:18;;;;;;;10.52;6.75;;;;;;;;;;5034668;28;20468;-77
2023/07/08 02:38:44;;;;;;;9.77;6.50;;;;;;;;;;5034655;28;20076;-76
2023/07/08 02:41:11;;;;;;;8.35;6.10;;;;;;;;;;5034217;28;20471;-77
2023/07/08 02:43:37;;;;;;;10.25;6.53;;;;;;;;;;5034669;28;20472;-77
2023/07/08 02:46:03;;;;;;;10.55;7.20;;;;;;;;;;5034741;28;20045;-77
2023/07/08 02:48:29;;;;;;;8.70;7.03;;;;;;;;;;5034785;28;20495;-77
2023/07/08 02:50:59;;;;;;;9.98;6.72;;;;;;;;;;5034251;28;20431;-76
2023/07/08 02:53:25;;;;;;;11.07;7.65;;;;;;;;;;5034901;28;20116;-77
2023/07/08 02:55:51;;;;;;;10.02;7.13;;;;;;;;;;5034439;28;20045;-78
2023/07/08 02:58:17;;;;;;;9.35;6.95;;;;;;;;;;5034631;28;20042;-77
2023/07/08 03:00:43;;;;;;;12.07;7.50;;;;;;;;;;5032876;28;20495;-77
2023/07/08 03:03:09;;;;;;;8.95;7.32;;;;;;;;;;5033204;28;20073;-78
2023/07/08 03:05:35;;;;;;;8.02;6.82;;;;;;;;;;5033953;28;20045;-77
2023/07/08 03:08:02;;;;;;;8.77;7.35;;;;;;;;;;5032781;28;20045;-77
2023/07/08 03:10:28;;;;;;;12.50;7.30;;;;;;;;;;5033704;28;20053;-77
2023/07/08 03:12:54;;;;;;;10.52;7.50;;;;;;;;;;5034551;28;20095;-77
2023/07/08 03:15:20;;;;;;;10.18;7.32;;;;;;;;;;5032409;28;20045;-78
2023/07/08 03:17:46;;;;;;;9.70;7.47;;;;;;;;;;5033850;28;20111;-78
2023/07/08 03:20:12;;;;;;;11.50;7.40;;;;;;;;;;5034378;28;20052;-77
2023/07/08 03:22:38;;;;;;;10.43;7.50;;;;;;;;;;5032475;28;20415;-77
2023/07/08 03:25:04;;;;;;;10.05;7.50;;;;;;;;;;5032594;28;20391;-77
2023/07/08 03:27:31;;;;;;;10.15;7.28;;;;;;;;;;5032768;28;20061;-77
2023/07/08 03:29:57;;;;;;;10.38;7.43;;;;;;;;;;5032636;28;20125;-77
2023/07/08 03:32:25;;;;;;;9.10;7.07;;;;;;;;;;5032991;28;20107;-78
2023/07/08 03:34:51;;;;;;;10.18;7.15;;;;;;;;;;5033668;28;20072;-78
2023/07/08 03:37:17;;;;;;;11.27;7.15;;;;;;;;;;5033854;28;20050;-76
2023/07/08 03:39:43;;;;;;;9.63;7.32;;;;;;;;;;5033622;28;20056;-76
2023/07/08 03:42:10;;;;;;;10.60;7.90;;;;;;;;;;5033932;28;20499;-76
2023/07/08 03:44:36;;;;;;;11.80;7.28;;;;;;;;;;5033506;28;20045;-76
2023/07/08 03:47:02;;;;;;;9.88;7.47;;;;;;;;;;5032070;28;20515;-78
2023/07/08 03:49:28;;;;;;;8.85;7.13;;;;;;;;;;5033993;28;20102;-78
2023/07/08 03:51:54;;;;;;;9.23;6.95;;;;;;;;;;5033190;28;20047;-77
2023/07/08 03:54:21;;;;;;;11.10;7.60;;;;;;;;;;5033664;28;20037;-77
2023/07/08 03:56:47;;;;;;;9.85;7.68;;;;;;;;;;5033393;28;20333;-76
2023/07/08 03:59:14;;;;;;;9.48;7.40;;;;;;;;;;5034090;28;20124;-76
2023/07/08 04:01:41;;;;;;;11.85;7.50;;;;;;;;;;5033459;28;20049;-76
2023/07/08 04:04:07;;;;;;;9.73;7.05;;;;;;;;;;5033498;28;20041;-76
2023/07/08 04:06:34;;;;;;;9.20;7.40;;;;;;;;;;5033357;28;20050;-76
2023/07/08 04:09:00;;;;;;;9.35;7.40;;;;;;;;;;5033320;28;20136;-77
2023/07/08 04:11:26;;;;;;;9.43;7.15;;;;;;;;;;5032676;28;20042;-76
2023/07/08 04:13:52;;;;;;;12.45;7.35;;;;;;;;;;5033568;28;20121;-76
2023/07/08 04:16:21;;;;;;;10.80;7.15;;;;;;;;;;5031375;28;20484;-77
2023/07/08 04:18:50;;;;;;;8.88;7.38;;;;;;;;;;5033304;28;20045;-76
2023/07/08 04:21:17;;;;;;;10.98;7.35;;;;;;;;;;5033333;28;20049;-77
2023/07/08 04:23:43;;;;;;;8.90;7.47;;;;;;;;;;5032733;28;20582;-77
2023/07/08 04:26:09;;;;;;;8.85;7.25;;;;;;;;;;5032375;28;20384;-76
2023/07/08 04:28:36;;;;;;;11.48;7.10;;;;;;;;;;5033262;28;20047;-76
2023/07/08 04:31:03;;;;;;;10.65;7.13;;;;;;;;;;5031583;28;20549;-78
2023/07/08 04:33:30;;;;;;;10.48;7.43;;;;;;;;;;5031548;28;20492;-78
2023/07/08 04:35:56;;;;;;;10.88;7.07;;;;;;;;;;5032690;28;20404;-78
2023/07/08 04:38:23;;;;;;;8.68;7.15;;;;;;;;;;5031750;28;20495;-78
2023/07/08 04:40:50;;;;;;;9.23;7.03;;;;;;;;;;5032976;28;20045;-77
2023/07/08 04:43:17;;;;;;;9.40;6.70;;;;;;;;;;5033201;28;20116;-77
2023/07/08 04:45:46;;;;;;;8.10;6.55;;;;;;;;;;5032745;28;20131;-77
2023/07/08 04:48:13;;;;;;;8.60;6.90;;;;;;;;;;5033429;28;20041;-77
2023/07/08 04:50:41;;;;;;;9.90;7.10;;;;;;;;;;5032728;28;20049;-77
2023/07/08 04:53:07;;;;;;;8.65;6.53;;;;;;;;;;5032916;28;20145;-77
2023/07/08 04:55:33;;;;;;;9.27;6.90;;;;;;;;;;5032465;28;20415;-77
2023/07/08 04:58:01;;;;;;;9.55;6.70;;;;;;;;;;5033214;28;20049;-77
2023/07/08 05:00:28;;;;;;;9.95;6.70;;;;;;;;;;5032527;28;20080;-77
2023/07/08 05:02:54;;;;;;;8.82;6.50;;;;;;;;;;5033393;28;20042;-77
2023/07/08 05:05:20;;;;;;;9.18;6.45;;;;;;;;;;5031439;28;20100;-77
2023/07/08 05:07:46;;;;;;;7.03;6.32;;;;;;;;;;5032495;28;20044;-77
2023/07/08 05:10:12;;;;;;;8.77;6.50;;;;;;;;;;5032956;28;20049;-77
2023/07/08 05:12:38;;;;;;;8.00;6.72;;;;;;;;;;5032820;28;20399;-77
2023/07/08 05:15:05;;;;;;;8.55;6.50;;;;;;;;;;5030760;28;20357;-77
2023/07/08 05:17:31;;;;;;;6.82;6.13;;;;;;;;;;5013149;28;20125;-77
2023/07/08 05:20:00;;;;;;;8.00;6.47;;;;;;;;;;5012598;28;20077;-78
2023/07/08 05:22:26;;;;;;;7.07;5.88;;;;;;;;;;5014488;28;20048;-77
2023/07/08 05:24:56;;;;;;;7.80;6.50;;;;;;;;;;5016406;28;20480;-77
2023/07/08 05:27:22;;;;;;;8.07;5.85;;;;;;;;;;5014780;28;20061;-77
2023/07/08 05:29:49;;;;;;;8.82;6.30;;;;;;;;;;5016488;28;20128;-77
2023/07/08 05:32:15;;;;;;;8.07;6.15;;;;;;;;;;5016488;28;20041;-77
2023/07/08 05:34:42;;;;;;;8.40;6.40;;;;;;;;;;5016596;28;20100;-77
2023/07/08 05:37:08;;;;;;;7.28;6.20;;;;;;;;;;5016040;28;20129;-77
2023/07/08 05:39:34;;;;;;;8.48;6.40;;;;;;;;;;5016897;28;20046;-77
2023/07/08 05:42:00;;;;;;;7.90;6.18;;;;;;;;;;5015721;28;20515;-77
2023/07/08 05:44:26;;;;;;;7.53;6.32;;;;;;;;;;5016309;28;20068;-77
2023/07/08 05:46:52;;;;;;;9.30;6.55;;;;;;;;;;5016285;28;20050;-77
2023/07/08 05:49:18;;;;;;;7.53;6.07;;;;;;;;;;5016479;28;20048;-77
2023/07/08 05:51:45;;;;;;;7.70;6.28;;;;;;;;;;5020333;28;20042;-77
2023/07/08 05:54:11;;;;;;;7.20;6.25;;;;;;;;;;5021290;28;20056;-77
2023/07/08 05:56:37;;;;;;;7.65;6.28;;;;;;;;;;5019655;28;20064;-77
2023/07/08 05:59:04;;;;;;;7.53;6.10;;;;;;;;;;5016868;28;20177;-77
2023/07/08 06:01:30;;;;;;;9.52;6.32;;;;;;;;;;5016369;28;20053;-77
2023/07/08 06:03:59;;;;;;;7.88;6.25;;;;;;;;;;5016243;28;20049;-77
2023/07/08 06:06:26;;;;;;;7.78;5.65;;;;;;;;;;5015651;28;20050;-77
2023/07/08 06:08:53;;;;;;;7.18;6.05;;;;;;;;;;5015673;28;20404;-77
2023/07/08 06:11:19;;;;;;;8.68;5.68;;;;;;;;;;5015651;28;20046;-77
2023/07/08 06:13:45;;;;;;;9.00;6.35;;;;;;;;;;5015251;28;20460;-78
2023/07/08 06:16:11;;;;;;;9.88;6.07;;;;;;;;;;5015384;28;20045;-77
2023/07/08 06:18:37;;;;;;;7.95;6.38;;;;;;;;;;5014406;28;20125;-78
2023/07/08 06:21:03;;;;;;;7.32;5.95;;;;;;;;;;5015160;28;20054;-78
2023/07/08 06:23:30;;;;;;;8.02;6.03;;;;;;;;;;5015059;28;20088;-78
2023/07/08 06:25:56;;;;;;;9.55;6.10;;;;;;;;;;5014965;28;20042;-78
2023/07/08 06:28:22;;;;;;;7.82;5.82;;;;;;;;;;5014218;28;20100;-78
2023/07/08 06:30:49;;;;;;;7.50;6.00;;;;;;;;;;5013570;28;20113;-77
2023/07/08 06:33:15;;;;;;;6.95;5.60;;;;;;;;;;5014818;28;20091;-77
2023/07/08 06:35:41;;;;;;;8.35;5.97;;;;;;;;;;5015235;28;20057;-77
2023/07/08 06:38:07;;;;;;;7.85;6.10;;;;;;;;;;5015726;28;20137;-77
2023/07/08 06:40:34;;;;;;;6.65;5.20;;;;;;;;;;5014656;28;20538;-77
2023/07/08 06:43:00;;;;;;;8.27;5.70;;;;;;;;;;5015217;28;20041;-77
2023/07/08 06:45:26;;;;;;;6.70;5.15;;;;;;;;;;5015089;28;20050;-77
2023/07/08 06:47:52;;;;;;;9.38;5.95;;;;;;;;;;5015262;28;20128;-77
2023/07/08 06:50:18;;;;;;;6.30;5.18;;;;;;;;;;5014501;28;20049;-77
2023/07/08 06:52:44;;;;;;;6.05;5.10;;;;;;;;;;5015491;28;20053;-77
2023/07/08 06:55:11;;;;;;;6.95;4.55;;;;;;;;;;5014678;28;20046;-77
2023/07/08 06:57:38;;;;;;;8.27;5.18;;;;;;;;;;5014969;28;20053;-77
2023/07/08 07:00:05;;;;;;;8.13;5.03;;;;;;;;;;5014549;28;20397;-77
2023/07/08 07:02:31;;;;;;;7.38;5.43;;;;;;;;;;5015129;28;20046;-77
2023/07/08 07:04:57;;;;;;;7.53;5.30;;;;;;;;;;5014909;28;20088;-77
2023/07/08 07:07:23;;;;;;;7.10;5.28;;;;;;;;;;5014986;28;20089;-77
2023/07/08 07:09:49;;;;;;;5.57;4.80;;;;;;;;;;5014476;28;20089;-77
2023/07/08 07:12:16;;;;;;;7.18;5.38;;;;;;;;;;5014220;28;20370;-77
2023/07/08 07:14:42;;;;;;;5.60;4.65;;;;;;;;;;5014698;28;20081;-77
2023/07/08 07:17:08;;;;;;;6.13;4.47;;;;;;;;;;5032938;28;20037;-77
2023/07/08 07:19:34;;;;;;;6.13;4.88;;;;;;;;;;5034535;28;20092;-77
2023/07/08 07:22:00;;;;;;;10.52;4.60;;;;;;;;;;5033544;28;20480;-77
2023/07/08 07:24:26;;;;;;;5.72;5.13;;;;;;;;;;5034136;28;20046;-77
2023/07/08 07:26:52;;;;;;;5.97;4.65;;;;;;;;;;5033800;28;20057;-77
2023/07/08 07:29:18;;;;;;;5.72;4.80;;;;;;;;;;5033960;28;20057;-78
2023/07/08 07:31:44;;;;;;;6.00;4.80;;;;;;;;;;5033647;28;20125;-77
2023/07/08 07:34:11;;;;;;;5.57;4.53;;;;;;;;;;5034104;28;20045;-77
2023/07/08 07:36:38;;;;;;;6.05;4.43;;;;;;;;;;5033336;28;20507;-77
2023/07/08 07:39:04;;;;;;;6.70;4.45;;;;;;;;;;5033576;28;20041;-77
2023/07/08 07:41:30;;;;;;;6.75;4.55;;;;;;;;;;5033855;28;20148;-77
2023/07/08 07:43:56;;;;;;;6.15;4.72;;;;;;;;;;5032838;28;20045;-77
2023/07/08 07:46:22;;;;;;;5.85;4.20;;;;;;;;;;5032937;28;20510;-77
2023/07/08 07:48:48;;;;;;;6.25;4.20;;;;;;;;;;5033635;28;20130;-77
2023/07/08 07:51:15;;;;;;;6.63;4.20;;;;;;;;;;5033316;28;20092;-78
2023/07/08 07:53:41;;;;;;;4.93;4.28;;;;;;;;;;5031921;28;20061;-78
2023/07/08 07:56:08;;;;;;;5.28;4.35;;;;;;;;;;5017333;28;20045;-78
2023/07/08 07:58:34;;;;;;;5.75;4.32;;;;;;;;;;5013395;28;20547;-77
2023/07/08 08:01:00;;;;;;;6.55;4.05;;;;;;;;;;5013848;28;20120;-77
2023/07/08 08:03:26;;;;;;;5.93;4.03;;;;;;;;;;5014073;28;20041;-77
2023/07/08 08:05:52;;;;;;;4.72;4.07;;;;;;;;;;5012308;28;20095;-78
2023/07/08 08:08:20;;;;;;;6.10;4.25;;;;;;;;;;5013409;28;20049;-78
2023/07/08 08:10:46;;;;;;;5.10;4.00;;;;;;;;;;5013336;28;20046;-77
2023/07/08 08:13:12;;;;;;;6.07;4.10;;;;;;;;;;5013367;28;20404;-77
2023/07/08 08:15:39;;;;;;;5.50;4.32;;;;;;;;;;5019982;28;20107;-77
2023/07/08 08:18:05;;;;;;;5.15;4.20;;;;;;;;;;5033479;28;20432;-78
2023/07/08 08:20:32;;;;;;;5.45;3.90;;;;;;;;;;5031398;28;20053;-78
2023/07/08 08:22:58;;;;;;;5.25;4.10;;;;;;;;;;5033620;28;20120;-78
2023/07/08 08:25:25;;;;;;;4.75;4.22;;;;;;;;;;5033039;28;20089;-77
2023/07/08 08:27:52;;;;;;;6.30;4.60;;;;;;;;;;5032990;28;20399;-77
2023/07/08 08:30:18;;;;;;;5.70;4.05;;;;;;;;;;5033226;28;20066;-77
2023/07/08 08:32:44;;;;;;;5.03;3.90;;;;;;;;;;5032487;28;20391;-78
2023/07/08 08:35:10;;;;;;;7.32;4.07;;;;;;;;;;5033053;28;20419;-78
2023/07/08 08:37:36;;;;;;;5.15;4.28;;;;;;;;;;5032871;28;20046;-78
2023/07/08 08:40:03;;;;;;;5.45;4.38;;;;;;;;;;5033153;28;20491;-78
2023/07/08 08:42:33;;;;;;;6.00;4.35;;;;;;;;;;5033311;28;20060;-78
2023/07/08 08:45:00;;;;;;;5.85;3.83;;;;;;;;;;5031831;28;20053;-78
2023/07/08 08:47:37;;;;;;;7.10;4.32;;;;;;;;;;5033341;28;20052;-79
2023/07/08 08:50:27;;;;;;;5.63;4.50;;;;;;;;;;5033682;28;20070;-79
2023/07/08 08:52:55;;;;;;;5.07;4.20;;;;;;;;;;5033630;28;20480;-78
2023/07/08 08:55:23;;;;;;;4.90;3.97;;;;;;;;;;5023658;28;20050;-78
2023/07/08 08:58:09;;;;;;;5.57;4.28;;;;;;;;;;5017261;28;20123;-77
2023/07/08 09:00:45;;;;;;;6.07;4.28;;;;;;;;;;5016835;28;20075;-77
2023/07/08 09:03:18;;;;;;;6.07;4.50;;;;;;;;;;5017424;28;20038;-77
2023/07/08 09:05:45;;;;;;;4.50;3.72;;;;;;;;;;5015593;28;20129;-77
2023/07/08 09:08:11;;;;;;;5.70;4.20;;;;;;;;;;5015111;28;20518;-76
2023/07/08 09:10:46;;;;;;;6.60;4.50;;;;;;;;;;5016699;28;20046;-76
2023/07/08 09:13:17;;;;;;;8.07;3.88;;;;;;;;;;5017004;28;20468;-76
2023/07/08 09:15:43;;;;;;;6.60;4.03;;;;;;;;;;5023608;28;20045;-76
2023/07/08 09:18:21;;;;;;;5.68;3.90;;;;;;;;;;5037045;28;20068;-76
2023/07/08 09:20:47;;;;;;;4.60;3.88;;;;;;;;;;5036532;28;20038;-76
2023/07/08 09:23:22;;;;;;;7.53;4.18;;;;;;;;;;5036569;28;20041;-77
2023/07/08 09:25:59;;;;;;;4.75;4.18;;;;;;;;;;5036473;28;20049;-76
2023/07/08 09:28:42;;;;;;;5.93;4.20;;;;;;;;;;5036430;28;20511;-76
2023/07/08 09:31:09;;;;;;;6.22;4.03;;;;;;;;;;5037794;28;20038;-77
2023/07/08 09:33:38;;;;;;;4.38;3.65;;;;;;;;;;5040937;28;20052;-77
2023/07/08 09:36:16;;;;;;;4.35;3.95;;;;;;;;;;5040515;28;20045;-76
2023/07/08 09:38:43;;;;;;;5.90;3.90;;;;;;;;;;5038467;28;20459;-76
2023/07/08 09:41:09;;;;;;;5.85;3.80;;;;;;;;;;5036298;28;20064;-76
2023/07/08 09:43:37;;;;;;;5.72;4.10;;;;;;;;;;5035764;28;20115;-76
2023/07/08 09:46:03;;;;;;;3.85;3.22;;;;;;;;;;5035670;28;20044;-76
2023/07/08 09:48:30;;;;;;;4.70;3.67;;;;;;;;;;5034513;28;20042;-76
2023/07/08 09:50:57;;;;;;;4.72;3.58;;;;;;;;;;5035597;28;20123;-76
2023/07/08 09:53:24;;;;;;;6.22;3.67;;;;;;;;;;5036491;28;20038;-76
2023/07/08 09:55:51;;;;;;;5.68;3.78;;;;;;;;;;5034701;28;20041;-76
2023/07/08 09:58:26;;;;;;;5.35;3.83;;;;;;;;;;5035898;28;20041;-76
2023/07/08 10:00:55;;;;;;;4.90;3.90;;;;;;;;;;5035277;28;20045;-77
2023/07/08 10:03:25;;;;;;;4.50;3.60;;;;;;;;;;5035650;28;20104;-77
2023/07/08 10:05:52;;;;;;;5.10;3.90;;;;;;;;;;5035496;28;20072;-76
2023/07/08 10:08:20;;;;;;;5.88;3.97;;;;;;;;;;5034959;28;20042;-76
2023/07/08 10:10:54;;;;;;;5.00;3.55;;;;;;;;;;5035489;28;20530;-76
2023/07/08 10:13:23;;;;;;;6.78;4.20;;;;;;;;;;5035284;28;20048;-76
2023/07/08 10:15:57;;;;;;;4.68;3.75;;;;;;;;;;5027736;28;20399;-76
2023/07/08 10:18:26;;;;;;;5.93;4.10;;;;;;;;;;5015761;28;20046;-76
2023/07/08 10:21:00;;;;;;;7.25;4.20;;;;;;;;;;5015682;28;20046;-76
2023/07/08 10:23:49;;;;;;;4.57;3.80;;;;;;;;;;5015998;28;20049;-76
2023/07/08 10:26:18;;;;;;;5.72;3.75;;;;;;;;;;5013780;28;20057;-77
2023/07/08 10:28:47;;;;;;;7.38;3.60;;;;;;;;;;5015249;28;20058;-76
2023/07/08 10:31:22;;;;;;;5.82;4.03;;;;;;;;;;5014875;28;20112;-76
2023/07/08 10:33:51;;;;;;;5.82;3.83;;;;;;;;;;5015746;28;20068;-77
2023/07/08 10:36:36;;;;;;;4.25;3.40;;;;;;;;;;5014977;28;20552;-77
2023/07/08 10:39:20;;;;;;;4.38;3.60;;;;;;;;;;5015427;28;20095;-77
2023/07/08 10:41:49;;;;;;;4.80;4.18;;;;;;;;;;5014820;28;20121;-77
2023/07/08 10:44:21;;;;;;;4.82;3.75;;;;;;;;;;5013620;28;20489;-76
2023/07/08 10:47:06;;;;;;;6.03;4.18;;;;;;;;;;5015249;28;20042;-76
2023/07/08 10:49:39;;;;;;;6.88;3.90;;;;;;;;;;5015007;28;20133;-77
2023/07/08 10:52:24;;;;;;;6.40;3.75;;;;;;;;;;5014556;28;20108;-77
2023/07/08 10:54:50;;;;;;;6.60;4.00;;;;;;;;;;5014756;28;20081;-76
2023/07/08 10:57:28;;;;;;;5.50;3.83;;;;;;;;;;5015043;28;20480;-77
2023/07/08 11:00:03;;;;;;;4.50;4.00;;;;;;;;;;5015135;28;20054;-77
2023/07/08 11:02:54;;;;;;;5.32;3.70;;;;;;;;;;5014820;28;20555;-77
2023/07/08 11:05:55;;;;;;;6.55;3.90;;;;;;;;;;5014643;28;20050;-76
2023/07/08 11:08:24;;;;;;;4.07;3.67;;;;;;;;;;5012014;28;20053;-77
2023/07/08 11:10:56;;;;;;;6.55;4.53;;;;;;;;;;5012167;28;20159;-76
2023/07/08 11:13:24;;;;;;;6.03;4.03;;;;;;;;;;5012120;28;20041;-76
2023/07/08 11:15:58;;;;;;;5.68;3.63;;;;;;;;;;5012527;28;20046;-77
2023/07/08 11:18:29;;;;;;;7.35;4.20;;;;;;;;;;5012281;28;20492;-76
2023/07/08 11:21:24;;;;;;;4.97;4.20;;;;;;;;;;5011193;28;20631;-76
2023/07/08 11:23:57;;;;;;;4.90;3.58;;;;;;;;;;5003854;28;20050;-77
2023/07/08 11:26:32;;;;;;;5.38;3.85;;;;;;;;;;5011711;28;20153;-77
2023/07/08 11:28:59;;;;;;;6.90;4.10;;;;;;;;;;5011914;28;20054;-77
2023/07/08 11:31:26;;;;;;;5.22;4.10;;;;;;;;;;5011576;28;20491;-76
2023/07/08 11:33:53;;;;;;;4.40;3.88;;;;;;;;;;5012204;28;20086;-76
2023/07/08 11:36:20;;;;;;;4.85;3.75;;;;;;;;;;5011608;28;20133;-76
2023/07/08 11:38:50;;;;;;;5.75;4.03;;;;;;;;;;5011841;28;20046;-76
2023/07/08 11:41:19;;;;;;;5.10;3.88;;;;;;;;;;5011643;28;20046;-77
2023/07/08 11:43:46;;;;;;;4.75;4.10;;;;;;;;;;5014093;28;20204;-77
2023/07/08 11:46:15;;;;;;;4.25;3.70;;;;;;;;;;5013388;28;20528;-77
2023/07/08 11:48:44;;;;;;;6.68;4.03;;;;;;;;;;5013912;28;20140;-77
2023/07/08 11:51:16;;;;;;;5.93;4.10;;;;;;;;;;5013591;28;20499;-77
2023/07/08 11:53:49;;;;;;;4.65;4.03;;;;;;;;;;5012648;28;20496;-77
2023/07/08 11:56:22;;;;;;;4.55;3.95;;;;;;;;;;5013448;28;20045;-77
2023/07/08 11:58:51;;;;;;;5.90;4.15;;;;;;;;;;5014360;28;20038;-76
2023/07/08 12:01:17;;;;;;;5.25;4.10;;;;;;;;;;5013779;28;20085;-76
2023/07/08 12:03:51;;;;;;;5.63;4.32;;;;;;;;;;5013639;28;20050;-76
2023/07/08 12:06:27;;;;;;;5.18;3.75;;;;;;;;;;5013646;28;20045;-77
2023/07/08 12:08:54;;;;;;;5.32;3.95;;;;;;;;;;5013568;28;20072;-76
2023/07/08 12:11:24;;;;;;;4.40;3.90;;;;;;;;;;5013018;28;20182;-77
2023/07/08 12:13:50;;;;;;;6.18;4.00;;;;;;;;;;5013431;28;20400;-76
2023/07/08 12:16:16;;;;;;;4.82;4.30;;;;;;;;;;5013041;28;20393;-76
2023/07/08 12:18:46;;;;;;;5.55;4.00;;;;;;;;;;5013621;28;20049;-77
2023/07/08 12:21:13;;;;;;;6.85;4.32;;;;;;;;;;5013152;28;20054;-77
2023/07/08 12:23:44;;;;;;;4.78;4.20;;;;;;;;;;5013961;28;20050;-77
2023/07/08 12:26:10;;;;;;;5.55;4.25;;;;;;;;;;5013057;28;20064;-76
2023/07/08 12:28:39;;;;;;;6.57;4.07;;;;;;;;;;5013807;28;20108;-76
2023/07/08 12:31:23;;;;;;;4.88;3.75;;;;;;;;;;5012995;28;20052;-77
2023/07/08 12:33:50;;;;;;;7.35;4.50;;;;;;;;;;5013442;28;20046;-77
2023/07/08 12:36:21;;;;;;;6.93;3.92;;;;;;;;;;5013243;28;20057;-77
2023/07/08 12:38:49;;;;;;;5.43;4.30;;;;;;;;;;5013193;28;20045;-76
2023/07/08 12:41:17;;;;;;;4.75;4.22;;;;;;;;;;5013027;28;20041;-76
2023/07/08 12:43:43;;;;;;;5.05;4.47;;;;;;;;;;5013414;28;20138;-76
2023/07/08 12:46:13;;;;;;;6.32;4.30;;;;;;;;;;5012910;28;20458;-77
2023/07/08 12:48:43;;;;;;;5.57;4.25;;;;;;;;;;5013623;28;20050;-76
2023/07/08 12:51:13;;;;;;;6.53;4.55;;;;;;;;;;5013370;28;20042;-76
2023/07/08 12:53:40;;;;;;;5.70;4.10;;;;;;;;;;5013175;28;20135;-76
2023/07/08 12:56:06;;;;;;;6.95;4.45;;;;;;;;;;5012716;28;20404;-76
2023/07/08 12:58:35;;;;;;;5.28;4.32;;;;;;;;;;5013180;28;20476;-76
2023/07/08 13:01:06;;;;;;;5.03;4.18;;;;;;;;;;5012782;28;20095;-77
2023/07/08 13:03:34;;;;;;;5.72;4.38;;;;;;;;;;5012966;28;20054;-77
2023/07/08 13:06:01;;;;;;;5.20;4.32;;;;;;;;;;5013090;28;20046;-77
2023/07/08 13:08:29;;;;;;;6.13;4.32;;;;;;;;;;5013183;28;20149;-76
2023/07/08 13:10:57;;;;;;;4.50;4.10;;;;;;;;;;5012852;28;20052;-76
2023/07/08 13:13:29;;;;;;;5.00;4.50;;;;;;;;;;5012857;28;20042;-76
2023/07/08 13:15:55;;;;;;;5.20;4.30;;;;;;;;;;5013178;28;20121;-78
2023/07/08 13:18:39;;;;;;;4.85;4.28;;;;;;;;;;5013192;28;20100;-77
2023/07/08 13:21:06;;;;;;;6.38;4.55;;;;;;;;;;5012973;28;20053;-77
2023/07/08 13:23:33;;;;;;;5.95;4.00;;;;;;;;;;5012816;28;20049;-76
2023/07/08 13:25:59;;;;;;;7.63;4.50;;;;;;;;;;5017707;28;20046;-76
2023/07/08 13:28:25;;;;;;;6.70;4.55;;;;;;;;;;5018250;28;20046;-76
2023/07/08 13:30:56;;;;;;;7.47;4.00;;;;;;;;;;5015504;28;20125;-78
2023/07/08 13:33:22;;;;;;;8.85;4.68;;;;;;;;;;5013157;28;20049;-77
2023/07/08 13:35:49;;;;;;;7.93;4.45;;;;;;;;;;5012687;28;20045;-77
2023/07/08 13:38:19;;;;;;;7.05;4.72;;;;;;;;;;5011269;28;20448;-77
2023/07/08 13:40:47;;;;;;;5.93;4.70;;;;;;;;;;5012808;28;20076;-78
2023/07/08 13:43:14;;;;;;;6.15;4.40;;;;;;;;;;5014115;28;20077;-78
2023/07/08 13:45:47;;;;;;;6.88;4.43;;;;;;;;;;5015821;28;20177;-77
2023/07/08 13:48:15;;;;;;;6.25;4.40;;;;;;;;;;5016093;28;20077;-77
2023/07/08 13:50:52;;;;;;;5.45;4.45;;;;;;;;;;5015559;28;20133;-78
2023/07/08 13:53:19;;;;;;;5.70;4.50;;;;;;;;;;5016554;28;20046;-77
2023/07/08 13:55:46;;;;;;;10.48;4.85;;;;;;;;;;5016064;28;20103;-77
2023/07/08 13:58:16;;;;;;;6.85;4.63;;;;;;;;;;5016006;28;20121;-78
2023/07/08 14:00:42;;;;;;;7.10;4.75;;;;;;;;;;5015867;28;20061;-78
2023/07/08 14:03:12;;;;;;;9.38;5.10;;;;;;;;;;5015830;28;20049;-78
2023/07/08 14:05:39;;;;;;;8.77;4.93;;;;;;;;;;5015747;28;20041;-77
2023/07/08 14:08:13;;;;;;;8.23;4.70;;;;;;;;;;5015947;28;20038;-77
2023/07/08 14:10:39;;;;;;;9.38;4.82;;;;;;;;;;5015988;28;20057;-76
2023/07/08 14:13:06;;;;;;;5.97;4.50;;;;;;;;;;5015775;28;20178;-77
2023/07/08 14:15:32;;;;;;;9.73;4.78;;;;;;;;;;5020910;28;20213;-76
2023/07/08 14:17:58;;;;;;;6.82;4.43;;;;;;;;;;5035493;28;20476;-76
2023/07/08 14:20:27;;;;;;;6.50;4.53;;;;;;;;;;5035469;28;20068;-78
2023/07/08 14:22:53;;;;;;;6.72;4.50;;;;;;;;;;5035884;28;20049;-77
2023/07/08 14:25:26;;;;;;;6.93;4.40;;;;;;;;;;5034872;28;20503;-76
2023/07/08 14:27:52;;;;;;;5.82;4.32;;;;;;;;;;5035177;28;20093;-76
2023/07/08 14:30:19;;;;;;;7.18;4.57;;;;;;;;;;5034922;28;20050;-76
2023/07/08 14:32:45;;;;;;;6.82;4.90;;;;;;;;;;5034850;28;20148;-76
2023/07/08 14:35:16;;;;;;;8.18;4.47;;;;;;;;;;5034849;28;20194;-77
2023/07/08 14:37:42;;;;;;;6.63;4.47;;;;;;;;;;5033841;28;20056;-76
2023/07/08 14:40:17;;;;;;;8.15;4.43;;;;;;;;;;5034801;28;20092;-76
2023/07/08 14:42:43;;;;;;;8.73;4.75;;;;;;;;;;5035223;28;20061;-76
2023/07/08 14:45:10;;;;;;;7.13;4.45;;;;;;;;;;5034723;28;20053;-76
2023/07/08 14:47:36;;;;;;;7.00;4.47;;;;;;;;;;5035325;28;20055;-76